Time;durP1;ratioP1;P1;durP2;ratioP2;P2;SDS_P1;SDS_P2;PMS_P1;PMS_P2;Temp;Humidity;BMP_temperature;BMP_pressure;BME280_temperature;BME280_humidity;BME280_pressure;Samples;Min_cycle;Max_cycle;Signal;HPM_P1;HPM_P2
2022/05/23 00:02:09;;;;;;;5.07;4.07;;;;;;;11.10;100.00;99428.19;5014804;28;20037;-78
2022/05/23 00:04:36;;;;;;;6.45;4.30;;;;;;;11.12;100.00;99439.38;5032596;28;20036;-78
2022/05/23 00:07:02;;;;;;;6.05;4.30;;;;;;;11.07;100.00;99437.00;5032598;28;20036;-78
2022/05/23 00:09:29;;;;;;;4.38;3.90;;;;;;;11.07;100.00;99438.75;5032402;28;20037;-79
2022/05/23 00:11:54;;;;;;;5.75;4.30;;;;;;;11.08;100.00;99443.91;5014922;28;20029;-78
2022/05/23 00:14:20;;;;;;;4.45;3.95;;;;;;;11.04;100.00;99434.56;5032296;28;20597;-78
2022/05/23 00:16:49;;;;;;;4.47;4.03;;;;;;;10.99;100.00;99426.97;5032556;28;20026;-78
2022/05/23 00:19:16;;;;;;;6.65;3.83;;;;;;;10.98;100.00;99434.88;5014470;28;20084;-78
2022/05/23 00:21:45;;;;;;;7.47;4.15;;;;;;;10.92;100.00;99425.63;5032289;28;20044;-78
2022/05/23 00:24:13;;;;;;;7.70;4.18;;;;;;;10.88;100.00;99426.69;5014540;28;20033;-78
2022/05/23 00:26:40;;;;;;;6.30;4.18;;;;;;;10.91;100.00;99430.88;5014827;28;20108;-78
2022/05/23 00:29:05;;;;;;;5.93;4.07;;;;;;;10.89;100.00;99428.38;5032224;28;20108;-78
2022/05/23 00:31:31;;;;;;;6.07;4.05;;;;;;;10.86;100.00;99425.06;5031896;28;20108;-78
2022/05/23 00:36:40;;;;;;;5.53;4.15;;;;;;;10.81;100.00;99422.72;5032461;28;20126;-78
2022/05/23 00:39:06;;;;;;;5.97;3.85;;;;;;;10.76;100.00;99423.88;5032011;28;20529;-78
2022/05/23 00:44:34;;;;;;;5.95;4.03;;;;;;;10.79;100.00;99435.00;5031812;28;20040;-78
2022/05/23 00:47:02;;;;;;;5.07;3.50;;;;;;;10.78;100.00;99435.03;5032177;28;20479;-78
2022/05/23 00:49:34;;;;;;;4.57;3.45;;;;;;;10.61;100.00;99415.91;5031673;28;20483;-78
2022/05/23 00:52:05;;;;;;;5.07;3.50;;;;;;;10.67;100.00;99439.06;5014287;28;20029;-77
2022/05/23 00:54:43;;;;;;;6.97;4.07;;;;;;;10.57;100.00;99427.38;5031732;28;20119;-77
2022/05/23 00:57:14;;;;;;;5.30;4.03;;;;;;;10.53;100.00;99438.03;5014498;28;20036;-79
2022/05/23 00:59:40;;;;;;;;;;;;;;;10.45;100.00;99431.47;5032495;28;20506;-80
2022/05/23 01:02:07;;;;;;;4.60;3.60;;;;;;;10.35;100.00;99419.81;5031899;28;19944;-80
2022/05/23 01:04:33;;;;;;;4.55;3.83;;;;;;;10.33;100.00;99432.06;5031956;28;20022;-80
2022/05/23 01:06:58;;;;;;;5.65;4.00;;;;;;;10.25;100.00;99418.59;5014101;28;20394;-79
2022/05/23 01:09:26;;;;;;;6.30;3.92;;;;;;;10.16;100.00;99412.03;5031727;28;20029;-79
2022/05/23 01:11:54;;;;;;;4.20;3.80;;;;;;;10.16;100.00;99429.41;5014227;28;20049;-79
2022/05/23 01:14:21;;;;;;;5.60;3.92;;;;;;;10.11;100.00;99429.66;5031441;28;20425;-79
2022/05/23 01:16:46;;;;;;;5.47;3.90;;;;;;;10.04;100.00;99428.25;5032607;28;20037;-79
2022/05/23 01:19:12;;;;;;;4.20;3.80;;;;;;;9.98;100.00;99425.91;5017893;28;20394;-79
2022/05/23 01:21:57;;;;;;;5.60;4.25;;;;;;;9.93;100.00;99431.34;5035841;28;20068;-79
2022/05/23 01:24:44;;;;;;;5.63;4.32;;;;;;;9.87;100.00;99426.44;5035646;28;20032;-79
2022/05/23 01:27:11;;;;;;;4.13;3.50;;;;;;;9.71;100.00;99412.47;5036029;28;20083;-79
2022/05/23 01:29:36;;;;;;;5.78;4.13;;;;;;;9.65;100.00;99415.34;5017628;28;20112;-79
2022/05/23 01:32:02;;;;;;;8.45;3.95;;;;;;;9.70;100.00;99422.03;5017787;28;20119;-79
2022/05/23 01:34:28;;;;;;;4.30;3.50;;;;;;;9.64;100.00;99421.47;5035193;28;20025;-79
2022/05/23 01:36:54;;;;;;;4.20;3.63;;;;;;;9.57;100.00;99412.28;5035929;28;20044;-79
2022/05/23 01:39:20;;;;;;;5.03;3.95;;;;;;;9.47;100.00;99401.44;5035338;28;20382;-79
2022/05/23 01:41:46;;;;;;;6.60;3.75;;;;;;;9.42;100.00;99398.22;5017672;28;20057;-79
2022/05/23 01:44:11;;;;;;;5.78;4.00;;;;;;;9.43;100.00;99412.88;5035351;28;20030;-79
2022/05/23 01:46:36;;;;;;;4.13;3.80;;;;;;;9.37;100.00;99408.81;5034853;28;20077;-79
2022/05/23 01:49:02;;;;;;;6.05;3.83;;;;;;;9.35;100.00;99404.59;5035190;28;20084;-79
2022/05/23 01:51:28;;;;;;;5.78;4.10;;;;;;;9.28;100.00;99393.66;5017371;28;20029;-79
2022/05/23 01:53:53;;;;;;;4.10;3.33;;;;;;;9.25;100.00;99398.97;5034007;28;20029;-79
2022/05/23 01:56:19;;;;;;;4.93;3.70;;;;;;;9.17;100.00;99395.88;5017189;28;20107;-79
2022/05/23 02:01:29;;;;;;;4.45;4.00;;;;;;;9.03;100.00;99393.06;5034581;28;20046;-79
2022/05/23 02:03:55;;;;;;;4.45;4.05;;;;;;;9.09;100.00;99401.41;5034903;28;20025;-79
2022/05/23 02:06:20;;;;;;;4.63;4.00;;;;;;;8.99;100.00;99385.41;5035120;28;20033;-79
2022/05/23 02:08:46;;;;;;;5.53;4.22;;;;;;;9.05;100.00;99404.22;5034894;28;20021;-79
2022/05/23 02:11:12;;;;;;;5.25;4.55;;;;;;;8.95;100.00;99383.84;5035018;28;20033;-79
2022/05/23 02:13:40;;;;;;;7.30;4.57;;;;;;;8.95;100.00;99396.84;5016949;28;20025;-79
2022/05/23 02:16:06;;;;;;;5.18;4.18;;;;;;;8.91;100.00;99403.06;5016905;28;20021;-79
2022/05/23 02:18:31;;;;;;;5.10;4.18;;;;;;;8.88;100.00;99402.38;5034444;28;20024;-79
2022/05/23 02:20:57;;;;;;;6.35;4.63;;;;;;;8.79;100.00;99389.78;5034799;28;20022;-79
2022/05/23 02:23:24;;;;;;;5.15;4.28;;;;;;;8.72;100.00;99381.41;5034506;28;20022;-79
2022/05/23 02:25:49;;;;;;;6.53;4.72;;;;;;;8.69;100.00;99381.56;5034741;28;20141;-79
2022/05/23 02:28:14;;;;;;;7.15;4.78;;;;;;;8.66;100.00;99389.47;5033377;28;20101;-79
2022/05/23 02:30:40;;;;;;;6.22;4.60;;;;;;;8.61;100.00;99388.84;5034317;28;20040;-79
2022/05/23 02:33:05;;;;;;;5.25;4.70;;;;;;;8.54;100.00;99387.41;5034629;28;20108;-79
2022/05/23 02:35:31;;;;;;;8.52;5.07;;;;;;;8.49;100.00;99385.84;5032961;28;20126;-79
2022/05/23 02:37:57;;;;;;;5.03;4.53;;;;;;;8.51;100.00;99388.34;5034532;28;20390;-80
2022/05/23 02:40:23;;;;;;;6.82;4.90;;;;;;;8.54;100.00;99390.84;5034086;28;20056;-79
2022/05/23 02:42:48;;;;;;;5.35;4.75;;;;;;;8.48;100.00;99376.38;5016504;28;20029;-79
2022/05/23 02:45:13;;;;;;;6.45;5.10;;;;;;;8.55;100.00;99387.31;5033704;28;20133;-79
2022/05/23 02:47:39;;;;;;;7.18;4.53;;;;;;;8.52;100.00;99384.88;5016443;28;20124;-79
2022/05/23 02:50:06;;;;;;;6.68;5.40;;;;;;;8.53;100.00;99390.91;5032943;28;20021;-79
2022/05/23 02:52:32;;;;;;;7.18;4.70;;;;;;;8.53;100.00;99383.13;5016204;28;20452;-79
2022/05/23 02:54:57;;;;;;;5.63;4.28;;;;;;;8.50;100.00;99384.91;5034300;28;20104;-79
2022/05/23 02:57:23;;;;;;;5.00;4.50;;;;;;;8.56;100.00;99388.19;5033795;28;20116;-79
2022/05/23 02:59:48;;;;;;;5.63;4.50;;;;;;;8.55;100.00;99386.47;5016091;28;20025;-80
2022/05/23 03:04:57;;;;;;;7.68;4.90;;;;;;;8.55;100.00;99392.50;5034178;28;20552;-79
2022/05/23 03:07:23;;;;;;;5.55;4.97;;;;;;;8.49;100.00;99382.41;5033657;28;20025;-79
2022/05/23 03:09:48;;;;;;;5.45;4.57;;;;;;;8.56;100.00;99395.97;5033911;28;20026;-79
2022/05/23 03:12:14;;;;;;;5.22;4.72;;;;;;;8.54;100.00;99388.22;5015887;28;20025;-80
2022/05/23 03:14:39;;;;;;;5.78;4.75;;;;;;;8.56;100.00;99385.59;5033553;28;20029;-79
2022/05/23 03:17:06;;;;;;;9.18;5.55;;;;;;;8.56;100.00;99394.22;5033806;28;20040;-79
2022/05/23 03:19:36;;;;;;;6.40;5.18;;;;;;;8.60;100.00;99400.13;5015667;28;20112;-79
2022/05/23 03:27:29;;;;;;;7.55;5.15;;;;;;;8.65;100.00;99398.19;5033586;28;20067;-79
2022/05/23 03:29:54;;;;;;;6.15;5.30;;;;;;;8.69;100.00;99400.56;5015656;28;20022;-79
2022/05/23 03:32:20;;;;;;;7.30;5.30;;;;;;;8.73;100.00;99399.53;5015377;28;20079;-79
2022/05/23 03:34:46;;;;;;;6.32;5.30;;;;;;;8.78;100.00;99404.53;5015451;28;20052;-79
2022/05/23 03:37:11;;;;;;;5.68;5.18;;;;;;;8.84;100.00;99414.63;5033223;28;20490;-79
2022/05/23 03:39:38;;;;;;;5.05;4.55;;;;;;;8.86;100.00;99412.00;5032454;28;20022;-80
2022/05/23 03:42:05;;;;;;;7.00;5.57;;;;;;;8.92;100.00;99412.56;5015479;28;20033;-79
2022/05/23 03:44:30;;;;;;;7.03;5.78;;;;;;;8.98;100.00;99414.06;5032723;28;20029;-80
2022/05/23 03:46:55;;;;;;;6.32;5.72;;;;;;;8.99;100.00;99413.13;5033312;28;20021;-79
2022/05/23 03:49:21;;;;;;;10.18;6.88;;;;;;;9.07;100.00;99412.81;5032871;28;20033;-80
2022/05/23 03:51:46;;;;;;;6.68;5.57;;;;;;;9.15;100.00;99416.75;5032849;28;20025;-79
2022/05/23 03:54:11;;;;;;;7.72;5.47;;;;;;;9.27;100.00;99414.50;5031580;28;20463;-80
2022/05/23 03:56:37;;;;;;;7.88;6.15;;;;;;;9.36;100.00;99427.94;5032716;28;20029;-79
2022/05/23 03:59:02;;;;;;;9.68;5.93;;;;;;;9.48;100.00;99429.13;5032872;28;20052;-80
2022/05/23 04:01:30;;;;;;;8.98;6.20;;;;;;;9.64;100.00;99421.47;5032399;28;20037;-80
2022/05/23 04:03:56;;;;;;;7.70;5.97;;;;;;;9.84;100.00;99421.38;5032632;28;20032;-79
2022/05/23 04:06:21;;;;;;;7.75;6.00;;;;;;;10.14;100.00;99416.47;5032480;28;20037;-79
2022/05/23 04:08:47;;;;;;;7.85;5.88;;;;;;;10.71;100.00;99414.53;5032291;28;20402;-79
2022/05/23 04:11:12;;;;;;;7.90;6.53;;;;;;;12.04;100.00;99416.16;5032892;28;20032;-79
2022/05/23 04:13:37;;;;;;;6.38;5.78;;;;;;;13.88;98.76;99403.34;5032469;28;20065;-79
2022/05/23 04:16:04;;;;;;;7.45;6.43;;;;;;;15.57;89.01;99412.03;5031120;28;20021;-79
2022/05/23 04:18:29;;;;;;;8.77;5.82;;;;;;;16.49;82.93;99425.56;5032135;28;20034;-80
2022/05/23 04:20:57;;;;;;;9.65;6.25;;;;;;;16.31;81.91;99414.63;5032277;28;20035;-79
2022/05/23 04:23:23;;;;;;;6.72;5.20;;;;;;;16.06;83.17;99423.47;5014305;28;20065;-79
2022/05/23 04:25:49;;;;;;;8.13;4.97;;;;;;;15.78;85.25;99438.56;5031081;28;20506;-79
2022/05/23 04:28:16;;;;;;;7.53;5.63;;;;;;;15.50;85.38;99441.44;5032314;28;20104;-79
2022/05/23 04:30:45;;;;;;;7.78;5.03;;;;;;;15.65;86.36;99446.47;5014076;28;20029;-80
2022/05/23 04:35:56;;;;;;;7.07;5.72;;;;;;;17.32;78.29;99436.75;5032267;28;20087;-79
2022/05/23 04:38:21;;;;;;;6.43;5.15;;;;;;;18.66;72.94;99446.09;5032361;28;20037;-80
2022/05/23 04:40:47;;;;;;;5.80;5.00;;;;;;;19.88;67.32;99444.53;5030607;28;20470;-83
2022/05/23 04:43:13;;;;;;;7.15;5.00;;;;;;;20.01;65.57;99439.00;5014541;28;20035;-83
2022/05/23 04:45:38;;;;;;;6.63;5.03;;;;;;;19.28;67.19;99436.50;5013976;28;20045;-83
2022/05/23 04:50:49;;;;;;;8.63;5.72;;;;;;;17.84;71.87;99452.88;5031778;28;20115;-83
2022/05/23 04:53:16;;;;;;;7.13;5.60;;;;;;;17.50;73.64;99450.25;5013795;28;20471;-83
2022/05/23 04:55:43;;;;;;;7.47;4.88;;;;;;;17.51;73.91;99441.38;5013970;28;20045;-81
2022/05/23 04:58:09;;;;;;;6.57;5.88;;;;;;;18.12;72.08;99440.97;5014153;28;20539;-81
2022/05/23 05:00:35;;;;;;;7.43;5.75;;;;;;;19.80;66.84;99453.13;5031832;28;20029;-81
2022/05/23 05:03:00;;;;;;;7.50;5.63;;;;;;;21.29;61.04;99447.56;5014239;28;20037;-81
2022/05/23 05:05:29;;;;;;;8.18;5.72;;;;;;;22.20;56.25;99439.72;5031592;28;20088;-81
2022/05/23 05:07:57;;;;;;;8.95;5.70;;;;;;;21.83;54.85;99438.81;5014237;28;20399;-81
2022/05/23 05:10:23;;;;;;;6.60;5.47;;;;;;;20.85;57.13;99440.13;5031854;28;20049;-82
2022/05/23 05:12:50;;;;;;;8.68;5.57;;;;;;;20.05;59.18;99449.16;5031424;28;20064;-81
2022/05/23 05:15:16;;;;;;;6.40;5.00;;;;;;;19.51;60.65;99445.09;5013801;28;20030;-81
2022/05/23 05:17:41;;;;;;;6.85;5.22;;;;;;;19.25;62.52;99439.41;5013980;28;20032;-81
2022/05/23 05:20:08;;;;;;;5.22;4.72;;;;;;;19.65;61.97;99449.22;5031904;28;20463;-80
2022/05/23 05:22:35;;;;;;;7.63;4.80;;;;;;;21.09;57.37;99431.72;5031539;28;20101;-81
2022/05/23 05:25:00;;;;;;;6.53;4.97;;;;;;;22.99;50.88;99433.59;5014170;28;20033;-80
2022/05/23 05:27:26;;;;;;;8.40;5.15;;;;;;;24.32;44.73;99428.47;5031593;28;20026;-80
2022/05/23 05:29:51;;;;;;;4.50;4.10;;;;;;;24.08;43.40;99439.91;5031234;28;20049;-81
2022/05/23 05:32:20;;;;;;;6.00;4.60;;;;;;;22.83;45.88;99437.75;5013974;28;20085;-80
2022/05/23 05:35:07;;;;;;;6.00;4.28;;;;;;;22.03;47.68;99438.69;5013576;28;20479;-79
2022/05/23 05:37:43;;;;;;;7.05;4.32;;;;;;;21.28;48.26;99427.31;5031338;28;20057;-81
2022/05/23 05:40:10;;;;;;;4.47;4.07;;;;;;;20.77;49.92;99433.88;5013600;28;20036;-81
2022/05/23 05:42:41;;;;;;;5.07;3.97;;;;;;;21.27;49.38;99439.72;5013560;28;20026;-78
2022/05/23 05:45:16;;;;;;;4.80;3.45;;;;;;;22.63;45.48;99431.00;5031176;28;20137;-81
2022/05/23 05:47:47;;;;;;;6.55;3.80;;;;;;;22.98;43.51;99430.13;5031236;28;20025;-79
2022/05/23 05:50:29;;;;;;;5.07;3.58;;;;;;;22.55;44.01;99434.41;5013809;28;20029;-80
2022/05/23 05:53:01;;;;;;;4.97;4.03;;;;;;;21.81;45.15;99432.00;5031322;28;20029;-81
2022/05/23 05:55:27;;;;;;;4.57;3.63;;;;;;;21.13;47.33;99421.69;5031265;28;20029;-80
2022/05/23 05:57:52;;;;;;;5.07;3.92;;;;;;;20.88;48.35;99436.38;4969742;28;20035;-80
2022/05/23 06:00:18;;;;;;;4.95;3.85;;;;;;;20.71;49.39;99430.00;4953922;28;20178;-81
2022/05/23 06:02:44;;;;;;;6.97;4.30;;;;;;;20.92;49.64;99417.41;4970431;28;20484;-80
2022/05/23 06:05:10;;;;;;;4.63;4.07;;;;;;;21.16;48.99;99421.41;4973848;28;20043;-80
2022/05/23 06:13:17;;;;;;;8.65;4.55;;;;;;;21.15;48.38;99423.22;4935106;29;20477;-79
2022/05/23 06:15:43;;;;;;;4.88;4.30;;;;;;;21.24;48.60;99418.84;4934543;29;20039;-80
2022/05/23 06:18:10;;;;;;;6.60;4.30;;;;;;;21.32;48.58;99418.13;4919117;29;20040;-79
2022/05/23 06:20:36;;;;;;;4.93;4.18;;;;;;;21.66;47.82;99411.28;4934780;29;20032;-80
2022/05/23 06:23:02;;;;;;;4.70;3.80;;;;;;;21.96;47.29;99419.06;4934914;29;20563;-80
2022/05/23 06:25:28;;;;;;;7.78;4.57;;;;;;;22.24;46.89;99422.50;4935192;29;20046;-80
2022/05/23 06:27:54;;;;;;;7.65;4.20;;;;;;;22.32;46.63;99417.28;4940234;28;20028;-81
2022/05/23 06:30:20;;;;;;;6.20;3.90;;;;;;;22.66;45.96;99428.00;4992681;28;20077;-79
2022/05/23 06:32:46;;;;;;;5.32;4.20;;;;;;;24.00;43.26;99415.94;4992515;28;20030;-79
2022/05/23 06:35:13;;;;;;;4.85;4.35;;;;;;;26.70;37.20;99391.06;4992773;28;20042;-79
2022/05/23 06:37:40;;;;;;;7.93;3.88;;;;;;;29.97;31.97;99401.00;4992654;28;20038;-78
2022/05/23 06:40:09;;;;;;;4.53;3.20;;;;;;;32.77;26.72;99421.53;4992843;28;20174;-78
2022/05/23 06:42:35;;;;;;;4.85;3.20;;;;;;;34.65;23.67;99405.50;4992286;28;20034;-79
2022/05/23 06:45:01;;;;;;;4.53;3.30;;;;;;;36.27;20.98;99426.22;4976241;28;20516;-79
2022/05/23 06:47:27;;;;;;;9.77;3.72;;;;;;;37.95;19.73;99416.97;4976060;28;20066;-79
2022/05/23 06:49:53;;;;;;;6.32;3.90;;;;;;;38.04;18.45;99420.06;5012787;28;20507;-79
2022/05/23 06:52:19;;;;;;;5.22;3.47;;;;;;;38.53;17.46;99398.22;5016405;28;20025;-79
2022/05/23 06:54:44;;;;;;;5.03;3.40;;;;;;;38.97;17.03;99396.06;5033722;28;20026;-79
2022/05/23 06:57:10;;;;;;;6.18;4.00;;;;;;;39.38;16.70;99393.56;5033982;28;20032;-79
2022/05/23 06:59:36;;;;;;;9.32;4.32;;;;;;;40.21;16.04;99396.25;5033608;28;20140;-79
2022/05/23 07:02:02;;;;;;;3.80;3.30;;;;;;;40.26;16.09;99390.78;5016329;28;20391;-80
2022/05/23 07:12:19;;;;;;;4.60;3.10;;;;;;;40.81;15.50;99383.66;5033978;28;20032;-80
2022/05/23 07:12:40;;;;;;;3.92;3.15;;;;;;;41.27;14.58;99378.06;5033554;28;20437;-79
2022/05/23 07:15:07;;;;;;;4.40;3.05;;;;;;;40.89;14.76;99380.34;5031484;28;20124;-79
2022/05/23 07:17:32;;;;;;;5.22;3.53;;;;;;;41.70;14.47;99359.25;5033740;28;20028;-80
2022/05/23 07:19:58;;;;;;;3.88;3.08;;;;;;;41.91;14.56;99359.97;5032076;28;20379;-79
2022/05/23 07:22:24;;;;;;;4.68;3.10;;;;;;;41.77;14.17;99359.78;5033655;28;20034;-79
2022/05/23 07:24:49;;;;;;;5.53;3.08;;;;;;;41.57;14.17;99349.78;5033649;28;20083;-79
2022/05/23 07:27:15;;;;;;;3.55;2.88;;;;;;;41.92;13.96;99347.09;5016085;28;20029;-80
2022/05/23 07:29:40;;;;;;;7.40;3.10;;;;;;;42.49;13.27;99348.28;5033289;28;20482;-79
2022/05/23 07:32:07;;;;;;;5.25;3.10;;;;;;;42.32;13.64;99335.84;5033343;28;20066;-80
2022/05/23 07:34:32;;;;;;;4.07;3.00;;;;;;;42.71;13.23;99345.88;5033514;28;20100;-79
2022/05/23 07:36:59;;;;;;;4.20;2.90;;;;;;;43.03;13.07;99341.69;5031362;28;20112;-80
2022/05/23 07:39:24;;;;;;;3.53;2.78;;;;;;;42.85;12.56;99330.34;5030782;28;20021;-80
2022/05/23 07:41:50;;;;;;;4.15;2.70;;;;;;;43.08;12.86;99331.50;5031684;28;20049;-80
2022/05/23 07:44:15;;;;;;;3.38;2.20;;;;;;;44.04;11.81;99322.19;5031900;28;20029;-80
2022/05/23 07:46:43;;;;;;;3.75;2.28;;;;;;;44.21;11.60;99336.16;5031487;28;20136;-80
2022/05/23 07:49:08;;;;;;;4.22;2.55;;;;;;;44.13;12.11;99339.59;5013917;28;20246;-80
2022/05/23 07:51:34;;;;;;;3.28;2.33;;;;;;;44.58;11.61;99339.88;5031562;28;20040;-80
2022/05/23 08:02:15;;;;;;;4.78;2.00;;;;;;;41.89;12.12;99332.09;5032942;28;20036;-80
2022/05/23 08:04:41;;;;;;;2.30;1.92;;;;;;;41.86;12.65;99329.94;5032543;28;20201;-80
2022/05/23 08:07:09;;;;;;;5.15;2.13;;;;;;;41.72;12.33;99313.31;5032795;28;20500;-80
2022/05/23 08:09:39;;;;;;;3.67;1.77;;;;;;;41.99;12.72;99306.56;5015019;28;20041;-80
2022/05/23 08:12:06;;;;;;;3.22;2.03;;;;;;;41.87;12.34;99304.19;5032298;28;20482;-79
2022/05/23 08:14:31;;;;;;;2.08;1.98;;;;;;;37.65;14.46;99312.28;5014713;28;20037;-79
2022/05/23 08:16:58;;;;;;;2.47;2.20;;;;;;;32.99;18.34;99307.81;5014369;28;20540;-79
2022/05/23 08:19:23;;;;;;;3.15;2.30;;;;;;;30.09;21.41;99307.22;5014944;28;20034;-79
2022/05/23 08:21:56;;;;;;;4.57;2.28;;;;;;;27.70;24.22;99308.50;5032753;28;20450;-79
2022/05/23 08:24:21;;;;;;;8.27;1.98;;;;;;;26.32;26.53;99306.44;5014702;28;20575;-79
2022/05/23 08:26:48;;;;;;;2.72;2.33;;;;;;;25.58;28.07;99298.16;5031432;28;20033;-79
2022/05/23 08:29:14;;;;;;;4.55;2.13;;;;;;;24.99;29.48;99295.09;5031236;28;20038;-79
2022/05/23 08:31:39;;;;;;;2.67;2.20;;;;;;;24.27;30.28;99302.19;5031843;28;20036;-79
2022/05/23 08:34:06;;;;;;;2.10;1.80;;;;;;;23.59;30.91;99300.66;5032230;28;20112;-79
2022/05/23 08:36:32;;;;;;;2.20;2.00;;;;;;;22.97;32.53;99303.63;5032365;28;20542;-79
2022/05/23 08:38:57;;;;;;;5.13;2.80;;;;;;;22.30;33.26;99295.41;5030627;28;20035;-79
2022/05/23 08:41:30;;;;;;;2.88;2.15;;;;;;;21.93;34.00;99288.44;5014302;28;20033;-79
2022/05/23 08:44:14;;;;;;;4.63;2.80;;;;;;;21.68;34.65;99292.69;5031774;28;20036;-79
2022/05/23 08:46:45;;;;;;;4.57;3.58;;;;;;;21.36;35.90;99295.88;5031747;28;20057;-79
2022/05/23 08:49:14;;;;;;;3.08;2.10;;;;;;;21.43;36.57;99275.72;5014292;28;20061;-79
2022/05/23 08:51:48;;;;;;;2.55;1.88;;;;;;;21.46;35.40;99279.06;5013930;28;20029;-79
2022/05/23 08:54:21;;;;;;;2.63;1.95;;;;;;;21.50;35.77;99283.09;5031871;28;20017;-78
2022/05/23 08:56:55;;;;;;;3.13;1.92;;;;;;;21.47;35.87;99291.31;5030849;28;20432;-79
2022/05/23 08:59:43;;;;;;;5.00;2.08;;;;;;;21.36;36.11;99298.50;5031600;28;20031;-80
2022/05/23 09:02:13;;;;;;;1.67;1.58;;;;;;;21.23;35.78;99292.69;5031599;28;20033;-79
2022/05/23 09:04:50;;;;;;;3.40;2.20;;;;;;;21.17;36.30;99285.34;5027753;28;20124;-79
2022/05/23 09:07:41;;;;;;;3.72;2.13;;;;;;;21.08;36.90;99283.59;5014296;28;20083;-79
2022/05/23 09:10:24;;;;;;;6.03;2.33;;;;;;;21.01;36.53;99274.56;5014089;28;20375;-79
2022/05/23 09:12:53;;;;;;;3.42;1.92;;;;;;;21.02;37.29;99269.09;5031501;28;20026;-80
2022/05/23 09:15:19;;;;;;;4.03;1.98;;;;;;;20.87;37.48;99260.00;5031880;28;20071;-80
2022/05/23 09:17:51;;;;;;;3.83;2.40;;;;;;;20.93;36.95;99273.47;5013902;28;20032;-79
2022/05/23 09:20:25;;;;;;;2.40;2.20;;;;;;;20.76;37.52;99250.41;5013919;28;20018;-79
2022/05/23 09:22:58;;;;;;;3.58;2.03;;;;;;;20.59;37.62;99240.59;5031328;28;20033;-79
2022/05/23 09:25:26;;;;;;;2.17;1.98;;;;;;;20.67;38.45;99246.00;5030643;28;20545;-80
2022/05/23 09:28:03;;;;;;;3.28;1.90;;;;;;;20.65;38.84;99254.09;5030605;28;20083;-80
2022/05/23 09:30:29;;;;;;;2.85;1.77;;;;;;;20.65;37.99;99254.09;5030794;28;20494;-80
2022/05/23 09:33:00;;;;;;;9.23;1.90;;;;;;;20.62;37.34;99240.31;5030589;28;20040;-79
2022/05/23 09:35:28;;;;;;;2.80;1.80;;;;;;;20.35;37.76;99233.13;5013003;28;20030;-79
2022/05/23 09:38:14;;;;;;;1.88;1.67;;;;;;;20.25;38.24;99227.03;5031339;28;20033;-79
2022/05/23 09:40:39;;;;;;;3.72;1.88;;;;;;;20.36;38.44;99242.75;5016890;28;20497;-79
2022/05/23 09:49:09;;;;;;;2.58;1.80;;;;;;;20.22;38.03;99240.53;5034572;28;20040;-80
2022/05/23 09:51:59;;;;;;;4.72;1.55;;;;;;;20.28;36.09;99232.06;5034387;28;20021;-79
2022/05/23 09:54:31;;;;;;;1.95;1.75;;;;;;;20.21;35.96;99223.84;5016396;28;20025;-79
2022/05/23 09:57:02;;;;;;;2.22;1.67;;;;;;;20.23;37.38;99229.00;5034131;28;20471;-79
2022/05/23 09:59:36;;;;;;;2.10;1.90;;;;;;;20.15;37.70;99227.91;4992143;28;20070;-79
2022/05/23 10:02:20;;;;;;;2.30;1.90;;;;;;;20.12;38.10;99214.13;4989680;28;20077;-79
2022/05/23 10:04:46;;;;;;;2.33;1.70;;;;;;;20.11;37.90;99231.00;4992011;28;20030;-80
2022/05/23 10:07:36;;;;;;;3.05;2.25;;;;;;;19.99;38.78;99225.00;4992280;28;20500;-79
2022/05/23 10:10:18;;;;;;;3.85;1.92;;;;;;;20.05;38.63;99210.38;4991824;28;20038;-79
2022/05/23 10:12:44;;;;;;;1.60;1.50;;;;;;;20.10;38.95;99216.94;4975644;28;20455;-79
2022/05/23 10:15:20;;;;;;;2.53;1.95;;;;;;;20.17;37.89;99214.53;4991162;28;20034;-79
2022/05/23 10:18:00;;;;;;;2.22;1.75;;;;;;;20.01;37.96;99203.72;4991714;28;20062;-78
2022/05/23 10:20:30;;;;;;;2.78;1.92;;;;;;;20.05;38.21;99202.44;4975562;28;20029;-78
2022/05/23 10:23:04;;;;;;;;;;;;;;;20.02;38.16;99194.84;4991833;28;20030;-79
2022/05/23 10:25:41;;;;;;;2.63;2.10;;;;;;;19.91;38.86;99174.66;4975440;28;19936;-78
2022/05/23 10:28:14;;;;;;;2.50;1.83;;;;;;;20.01;38.87;99178.13;4991809;28;20037;-78
2022/05/23 10:30:43;;;;;;;2.95;1.92;;;;;;;20.23;38.72;99192.00;4992579;28;20053;-78
2022/05/23 10:33:10;;;;;;;3.35;2.03;;;;;;;20.41;37.87;99180.50;4992538;28;20110;-79
2022/05/23 10:35:44;;;;;;;1.83;1.70;;;;;;;20.60;37.86;99200.75;4976133;28;20519;-79
2022/05/23 10:44:32;;;;;;;1.95;1.75;;;;;;;20.18;36.83;99164.19;5034251;28;20391;-78
2022/05/23 10:47:20;;;;;;;3.17;1.80;;;;;;;20.12;36.95;99190.34;5034019;28;20510;-79
2022/05/23 10:49:57;;;;;;;3.05;1.88;;;;;;;20.07;37.58;99180.19;5031561;28;20371;-79
2022/05/23 10:52:44;;;;;;;3.97;1.80;;;;;;;20.22;38.17;99166.50;5016400;28;20036;-79
2022/05/23 10:55:19;;;;;;;3.05;1.80;;;;;;;20.34;37.39;99160.88;5034149;28;20036;-79
2022/05/23 10:58:08;;;;;;;1.85;1.55;;;;;;;20.25;36.71;99180.28;5033853;28;20109;-79
2022/05/23 11:00:34;;;;;;;3.35;1.83;;;;;;;20.26;37.41;99174.00;5016105;28;20020;-78
2022/05/23 11:03:22;;;;;;;2.53;1.80;;;;;;;20.19;36.82;99167.66;5032323;28;20390;-79
2022/05/23 11:06:14;;;;;;;2.50;1.98;;;;;;;20.19;37.26;99157.91;5013497;28;20040;-78
2022/05/23 11:08:46;;;;;;;3.45;1.90;;;;;;;20.27;36.93;99165.13;5033826;28;20026;-79
2022/05/23 11:11:21;;;;;;;2.60;1.95;;;;;;;20.11;37.65;99164.88;5033642;28;20083;-79
2022/05/23 11:13:49;;;;;;;2.95;1.92;;;;;;;20.06;38.16;99152.09;5033284;28;20021;-79
2022/05/23 11:16:42;;;;;;;2.30;1.83;;;;;;;19.98;37.47;99149.34;5033418;28;20435;-79
2022/05/23 11:19:28;;;;;;;2.92;1.90;;;;;;;20.00;37.37;99155.31;5015617;28;20018;-79
2022/05/23 11:22:07;;;;;;;2.25;2.03;;;;;;;20.12;37.71;99138.28;5015168;28;20083;-79
2022/05/23 11:24:54;;;;;;;2.13;1.73;;;;;;;20.33;37.98;99146.00;5033958;28;20022;-79
2022/05/23 11:35:42;;;;;;;2.80;2.08;;;;;;;20.36;37.73;99132.50;5033301;28;20052;-79
2022/05/23 11:38:09;;;;;;;3.63;1.83;;;;;;;20.39;38.62;99129.56;5032782;28;20061;-79
2022/05/23 11:40:38;;;;;;;3.50;1.95;;;;;;;20.47;37.98;99135.91;5032997;28;20021;-78
2022/05/23 11:43:06;;;;;;;2.08;1.73;;;;;;;20.48;38.47;99124.34;5031414;28;20110;-79
2022/05/23 11:48:37;;;;;;;2.70;1.92;;;;;;;20.67;37.56;99129.56;5033262;28;20095;-79
2022/05/23 11:51:21;;;;;;;3.72;2.53;;;;;;;20.60;37.54;99134.63;5032530;28;20025;-79
2022/05/23 11:53:54;;;;;;;3.33;2.10;;;;;;;20.61;37.70;99130.19;5033000;28;20479;-79
2022/05/23 11:56:44;;;;;;;2.28;1.88;;;;;;;20.67;37.58;99127.75;5031541;28;20038;-79
2022/05/23 11:59:31;;;;;;;2.63;1.88;;;;;;;20.80;37.18;99118.63;5032329;28;20104;-79
2022/05/23 12:02:09;;;;;;;5.32;2.15;;;;;;;20.91;37.66;99113.97;5014491;28;20364;-79
2022/05/23 12:04:55;;;;;;;4.15;2.08;;;;;;;20.92;37.18;99106.84;5032849;28;20060;-78
2022/05/23 12:07:44;;;;;;;2.05;1.80;;;;;;;20.90;37.70;99103.53;5032788;28;20036;-79
2022/05/23 12:10:22;;;;;;;2.65;2.10;;;;;;;20.94;36.84;99107.50;5024074;28;20107;-80
2022/05/23 12:12:48;;;;;;;3.55;1.63;;;;;;;20.83;36.92;99100.63;5013412;28;20284;-78
2022/05/23 12:15:41;;;;;;;2.17;1.88;;;;;;;20.71;36.57;99093.91;5031990;28;20122;-80
2022/05/23 12:18:07;;;;;;;2.28;1.80;;;;;;;20.75;36.88;99089.13;5031266;28;20104;-79
2022/05/23 12:20:43;;;;;;;6.10;2.08;;;;;;;20.75;37.12;99087.31;5030847;28;20116;-80
2022/05/23 12:23:11;;;;;;;5.78;2.35;;;;;;;20.68;37.52;99081.78;5030797;28;20026;-80
2022/05/23 12:25:36;;;;;;;2.67;2.13;;;;;;;20.71;37.76;99078.00;5027199;28;20112;-80
2022/05/23 12:28:20;;;;;;;5.35;2.00;;;;;;;20.77;36.84;99071.28;5014102;28;20127;-80
2022/05/23 12:31:08;;;;;;;3.47;1.92;;;;;;;20.70;37.34;99070.25;5013821;28;20018;-80
2022/05/23 12:33:34;;;;;;;3.05;2.13;;;;;;;20.71;37.55;99062.13;5027595;28;20033;-80
2022/05/23 12:36:09;;;;;;;3.33;2.22;;;;;;;20.76;37.47;99051.94;5031385;28;20387;-80
2022/05/23 12:38:41;;;;;;;2.08;1.98;;;;;;;20.84;38.07;99049.34;5013624;28;20025;-80
2022/05/23 12:41:21;;;;;;;2.80;2.10;;;;;;;20.97;37.24;99050.78;5013833;28;20143;-80
2022/05/23 12:44:05;;;;;;;;;;;;;;;21.05;36.91;99049.03;5032624;28;20092;-80
2022/05/23 12:46:50;;;;;;;2.55;1.90;;;;;;;21.22;36.97;99049.19;5009211;28;20028;-80
2022/05/23 12:49:39;;;;;;;2.78;1.95;;;;;;;21.30;37.14;99044.78;4993293;28;20026;-80
2022/05/23 12:52:10;;;;;;;2.67;2.42;;;;;;;21.27;36.52;99042.41;5009562;28;20030;-80